Time;durP1;ratioP1;P1;durP2;ratioP2;P2;SDS_P1;SDS_P2;PMS_P1;PMS_P2;Temp;Humidity;BMP_temperature;BMP_pressure;BME280_temperature;BME280_humidity;BME280_pressure;Samples;Min_cycle;Max_cycle;Signal;HPM_P1;HPM_P2
2024/02/01 00:03:48;;;;;;;;;;;7.50;99.90;;;;;;6747455;87;20509;-75
2024/02/01 00:13:48;;;;;;;;;;;7.90;99.90;;;;;;6749463;87;20226;-75
2024/02/01 00:23:49;;;;;;;;;;;8.40;99.90;;;;;;6754275;87;20182;-76
2024/02/01 00:33:49;;;;;;;;;;;8.50;99.90;;;;;;6751129;87;20238;-75
2024/02/01 00:43:50;;;;;;;;;;;8.50;99.90;;;;;;6749355;87;20065;-74
2024/02/01 00:53:50;;;;;;;;;;;8.60;99.90;;;;;;6747540;87;20253;-75
2024/02/01 01:03:51;;;;;;;;;;;8.80;99.90;;;;;;6738227;87;20046;-76
2024/02/01 01:13:51;;;;;;;;;;;8.90;99.90;;;;;;6746589;87;20140;-76
2024/02/01 01:23:52;;;;;;;;;;;9.00;99.90;;;;;;6750686;87;20187;-76
2024/02/01 01:33:52;;;;;;;;;;;8.90;99.90;;;;;;6749275;87;20070;-75
2024/02/01 01:43:53;;;;;;;;;;;9.00;99.90;;;;;;6747539;87;20202;-76
2024/02/01 01:53:56;;;;;;;;;;;9.10;99.90;;;;;;6749916;87;20533;-76
2024/02/01 02:03:57;;;;;;;;;;;9.20;99.90;;;;;;6747629;87;20062;-76
2024/02/01 02:13:58;;;;;;;;;;;9.10;99.90;;;;;;6753217;87;20108;-74
2024/02/01 02:23:58;;;;;;;;;;;8.70;99.90;;;;;;6748384;87;20164;-75
2024/02/01 02:33:59;;;;;;;;;;;8.50;99.90;;;;;;6753283;87;20067;-76
2024/02/01 02:44:01;;;;;;;;;;;8.40;99.90;;;;;;6754134;87;20122;-74
2024/02/01 02:54:01;;;;;;;;;;;8.30;99.90;;;;;;6771873;87;20049;-76
2024/02/01 03:04:01;;;;;;;;;;;8.20;99.90;;;;;;6754822;87;20094;-76
2024/02/01 03:14:02;;;;;;;;;;;8.20;99.90;;;;;;6749682;87;20188;-76
2024/02/01 03:24:03;;;;;;;;;;;8.20;99.90;;;;;;6748289;87;20069;-75
2024/02/01 03:34:05;;;;;;;;;;;8.20;99.90;;;;;;6752324;87;21014;-75
2024/02/01 03:44:06;;;;;;;;;;;8.20;99.90;;;;;;6750301;87;20079;-76
2024/02/01 03:54:06;;;;;;;;;;;8.20;99.90;;;;;;6749659;88;20508;-76
2024/02/01 04:04:07;;;;;;;;;;;8.10;99.90;;;;;;6759580;87;20090;-76
2024/02/01 04:14:07;;;;;;;;;;;8.10;99.90;;;;;;6754542;87;20083;-77
2024/02/01 04:24:07;;;;;;;;;;;8.20;99.90;;;;;;6753480;87;20154;-75
2024/02/01 04:44:15;;;;;;;;;;;8.20;99.90;;;;;;6755455;88;20257;-76
2024/02/01 04:54:16;;;;;;;;;;;8.20;99.90;;;;;;6755299;88;20387;-78
2024/02/01 05:04:18;;;;;;;;;;;8.30;99.90;;;;;;6754073;88;20082;-77
2024/02/01 05:14:19;;;;;;;;;;;8.30;99.90;;;;;;6754041;88;20065;-78
2024/02/01 05:24:21;;;;;;;;;;;8.40;99.90;;;;;;6753795;88;20041;-76
2024/02/01 05:34:22;;;;;;;;;;;8.30;99.90;;;;;;6754818;88;20049;-79
2024/02/01 05:44:23;;;;;;;;;;;8.40;99.90;;;;;;6757051;88;20086;-79
2024/02/01 05:54:23;;;;;;;;;;;8.40;99.90;;;;;;6756107;88;20074;-79
2024/02/01 06:04:24;;;;;;;;;;;8.40;99.90;;;;;;6754380;88;20508;-77
2024/02/01 06:14:24;;;;;;;;;;;8.40;99.90;;;;;;6757355;88;20131;-78
2024/02/01 06:24:26;;;;;;;;;;;8.50;99.90;;;;;;6761152;88;20640;-79
2024/02/01 06:34:38;;;;;;;;;;;8.50;99.90;;;;;;6761022;88;20057;-79
2024/02/01 06:44:43;;;;;;;;;;;8.50;99.90;;;;;;6749266;88;20057;-80
2024/02/01 06:55:06;;;;;;;;;;;8.60;99.90;;;;;;6751219;88;20231;-78
2024/02/01 07:05:21;;;;;;;;;;;8.60;99.90;;;;;;6741523;88;20109;-79
2024/02/01 07:25:33;;;;;;;;;;;8.60;99.90;;;;;;6753799;88;20179;-78
2024/02/01 08:16:51;;;;;;;;;;;8.30;99.90;;;;;;6748836;88;20119;-77
2024/02/01 08:26:52;;;;;;;;;;;8.40;99.90;;;;;;6756103;88;20256;-78
2024/02/01 08:36:54;;;;;;;;;;;8.30;99.90;;;;;;6743951;88;20074;-78
2024/02/01 08:46:54;;;;;;;;;;;8.30;99.90;;;;;;6740900;88;20057;-77
2024/02/01 08:56:55;;;;;;;;;;;8.10;99.90;;;;;;6743798;88;20113;-77
2024/02/01 09:06:56;;;;;;;;;;;7.80;99.90;;;;;;6743969;88;20085;-77
2024/02/01 09:16:58;;;;;;;;;;;7.80;99.90;;;;;;6744536;88;20067;-77
2024/02/01 09:26:59;;;;;;;;;;;7.50;99.90;;;;;;6741729;88;20069;-77
2024/02/01 09:36:59;;;;;;;;;;;7.20;99.90;;;;;;6748081;87;20069;-79
2024/02/01 09:47:04;;;;;;;;;;;8.20;99.90;;;;;;6749042;87;20068;-76
2024/02/01 09:57:14;;;;;;;;;;;8.60;99.90;;;;;;6748577;87;20075;-77
2024/02/01 10:07:14;;;;;;;;;;;8.90;99.90;;;;;;6747776;88;20131;-77
2024/02/01 10:17:15;;;;;;;;;;;9.40;99.90;;;;;;6743755;87;20073;-77
2024/02/01 10:27:15;;;;;;;;;;;9.80;99.90;;;;;;6748287;87;20129;-77
2024/02/01 10:37:17;;;;;;;;;;;10.30;99.90;;;;;;6744119;87;20101;-77
2024/02/01 10:47:20;;;;;;;;;;;10.90;99.90;;;;;;6746164;88;20074;-77
2024/02/01 10:57:22;;;;;;;;;;;11.10;99.90;;;;;;6741522;88;20067;-77
2024/02/01 11:07:23;;;;;;;;;;;11.60;99.90;;;;;;6741517;88;20075;-76
2024/02/01 11:17:25;;;;;;;;;;;11.90;99.90;;;;;;6740923;88;20067;-76
2024/02/01 11:27:27;;;;;;;;;;;12.20;99.90;;;;;;6750977;88;20237;-78
2024/02/01 11:37:28;;;;;;;;;;;13.00;99.90;;;;;;6746630;87;20182;-78
2024/02/01 11:47:28;;;;;;;;;;;12.80;99.90;;;;;;6743951;88;20050;-77
2024/02/01 11:57:32;;;;;;;;;;;12.60;99.90;;;;;;6738111;88;20609;-77
2024/02/01 12:07:32;;;;;;;;;;;12.50;99.90;;;;;;6735862;88;20046;-77
2024/02/01 12:17:45;;;;;;;;;;;12.30;99.90;;;;;;6744539;88;20536;-77
2024/02/01 12:27:45;;;;;;;;;;;12.10;99.90;;;;;;6742538;88;20054;-77
2024/02/01 12:37:46;;;;;;;;;;;12.40;99.90;;;;;;6771424;87;20067;-78
2024/02/01 12:47:51;;;;;;;;;;;12.70;99.90;;;;;;6740445;88;20066;-77
2024/02/01 12:57:52;;;;;;;;;;;13.10;99.90;;;;;;6744771;88;20046;-77
2024/02/01 13:07:52;;;;;;;;;;;15.10;99.40;;;;;;6738063;88;20138;-76
2024/02/01 13:17:53;;;;;;;;;;;17.20;96.90;;;;;;6740791;88;20183;-78
2024/02/01 13:27:53;;;;;;;;;;;16.30;97.00;;;;;;6735202;88;20550;-78
2024/02/01 13:37:55;;;;;;;;;;;15.80;98.20;;;;;;6743917;87;20071;-78
2024/02/01 13:47:56;;;;;;;;;;;15.00;97.60;;;;;;6741064;88;20580;-77
2024/02/01 13:57:56;;;;;;;;;;;14.60;98.80;;;;;;6741854;88;20194;-77
2024/02/01 14:07:57;;;;;;;;;;;13.80;99.50;;;;;;6736866;88;20211;-76
2024/02/01 14:17:58;;;;;;;;;;;13.40;99.80;;;;;;6753428;88;20062;-78
2024/02/01 14:27:58;;;;;;;;;;;13.50;99.70;;;;;;6743196;88;20119;-76
2024/02/01 14:37:58;;;;;;;;;;;13.00;99.30;;;;;;6736954;87;20046;-76
2024/02/01 14:48:01;;;;;;;;;;;11.30;99.90;;;;;;6738459;88;20063;-77
2024/02/01 14:58:03;;;;;;;;;;;10.20;99.90;;;;;;6736033;88;20168;-79
2024/02/01 15:08:04;;;;;;;;;;;10.50;99.90;;;;;;6745228;88;20208;-77
2024/02/01 15:18:07;;;;;;;;;;;10.50;99.90;;;;;;6736705;88;20070;-77
2024/02/01 15:28:07;;;;;;;;;;;10.40;99.90;;;;;;6747681;87;20069;-78
2024/02/01 15:38:08;;;;;;;;;;;10.30;99.90;;;;;;6748318;87;20589;-78
2024/02/01 15:48:09;;;;;;;;;;;9.80;99.90;;;;;;6736211;88;20062;-78
2024/02/01 15:58:11;;;;;;;;;;;9.30;99.90;;;;;;6738495;88;20143;-78
2024/02/01 16:08:12;;;;;;;;;;;8.90;99.90;;;;;;6739074;88;20458;-78
2024/02/01 16:18:21;;;;;;;;;;;8.60;99.90;;;;;;6741756;87;20141;-77
2024/02/01 16:28:32;;;;;;;;;;;8.30;99.90;;;;;;6736134;88;20057;-75
2024/02/01 16:38:37;;;;;;;;;;;8.00;99.90;;;;;;6746451;77;20299;-76
2024/02/01 16:48:38;;;;;;;;;;;7.70;99.90;;;;;;6741582;88;20098;-75
2024/02/01 16:58:49;;;;;;;;;;;7.40;99.90;;;;;;6741580;87;20079;-75
2024/02/01 17:08:50;;;;;;;;;;;7.30;99.90;;;;;;6738137;87;20597;-76
2024/02/01 17:18:51;;;;;;;;;;;7.10;99.90;;;;;;6748781;87;20088;-74
2024/02/01 17:28:52;;;;;;;;;;;6.90;99.90;;;;;;6748057;87;20545;-76
2024/02/01 17:38:53;;;;;;;;;;;6.80;99.90;;;;;;6741954;87;20057;-74
2024/02/01 17:48:55;;;;;;;;;;;6.70;99.90;;;;;;6738500;87;20107;-73
2024/02/01 17:58:56;;;;;;;;;;;6.70;99.90;;;;;;6740994;87;20236;-74
2024/02/01 18:08:56;;;;;;;;;;;6.70;99.90;;;;;;6741949;87;20060;-73
2024/02/01 18:19:02;;;;;;;;;;;6.70;99.90;;;;;;6739405;87;20078;-73
2024/02/01 18:29:03;;;;;;;;;;;6.50;99.90;;;;;;6739278;87;20050;-73
2024/02/01 18:39:11;;;;;;;;;;;6.40;99.90;;;;;;6737622;87;20075;-74
2024/02/01 18:49:12;;;;;;;;;;;6.20;99.90;;;;;;6737195;87;20511;-73
2024/02/01 18:59:31;;;;;;;;;;;6.00;99.90;;;;;;6740174;87;20613;-74
2024/02/01 19:09:33;;;;;;;;;;;6.00;99.90;;;;;;6745575;87;20068;-74
2024/02/01 19:19:33;;;;;;;;;;;5.80;99.90;;;;;;6746290;87;20175;-74
2024/02/01 19:29:34;;;;;;;;;;;5.70;99.90;;;;;;6741147;87;20093;-73
2024/02/01 19:39:34;;;;;;;;;;;5.60;99.90;;;;;;6742430;87;20452;-74
2024/02/01 19:49:35;;;;;;;;;;;5.50;99.90;;;;;;6744557;87;20050;-75
2024/02/01 19:59:35;;;;;;;;;;;5.40;99.90;;;;;;6740404;87;20070;-74
2024/02/01 20:09:36;;;;;;;;;;;5.10;99.90;;;;;;6744747;87;20151;-74
2024/02/01 20:19:39;;;;;;;;;;;5.10;99.90;;;;;;6746367;87;20086;-74
2024/02/01 20:29:40;;;;;;;;;;;5.10;99.90;;;;;;6742718;87;20066;-74
2024/02/01 20:39:42;;;;;;;;;;;4.90;99.90;;;;;;6738832;87;20202;-75
2024/02/01 20:49:42;;;;;;;;;;;4.60;99.90;;;;;;6739994;87;20636;-73
2024/02/01 20:59:49;;;;;;;;;;;4.50;99.90;;;;;;6742220;87;20081;-72
2024/02/01 21:09:51;;;;;;;;;;;4.60;99.90;;;;;;6741679;87;20082;-73
2024/02/01 21:19:52;;;;;;;;;;;4.60;99.90;;;;;;6742701;87;20115;-74
2024/02/01 21:29:52;;;;;;;;;;;4.60;99.90;;;;;;6742349;87;21598;-73
2024/02/01 21:39:55;;;;;;;;;;;4.40;99.90;;;;;;6740743;87;20210;-73
2024/02/01 21:49:56;;;;;;;;;;;4.50;99.90;;;;;;6739965;87;20765;-74
2024/02/01 21:59:57;;;;;;;;;;;4.20;99.90;;;;;;6742878;87;20099;-73
2024/02/01 22:09:57;;;;;;;;;;;4.00;99.90;;;;;;6742257;87;20217;-73
2024/02/01 22:19:58;;;;;;;;;;;4.10;99.90;;;;;;6742406;87;21116;-73
2024/02/01 22:29:59;;;;;;;;;;;4.00;99.90;;;;;;6740892;87;20175;-73
2024/02/01 22:40:01;;;;;;;;;;;3.70;99.90;;;;;;6743780;87;20069;-73
2024/02/01 22:50:02;;;;;;;;;;;3.70;99.90;;;;;;6748328;77;20124;-76
2024/02/01 23:00:04;;;;;;;;;;;3.60;99.90;;;;;;6733549;88;20595;-75
2024/02/01 23:10:04;;;;;;;;;;;3.50;99.90;;;;;;6730527;88;20076;-75
2024/02/01 23:20:09;;;;;;;;;;;3.90;99.90;;;;;;6732353;88;20069;-75
2024/02/01 23:30:10;;;;;;;;;;;3.80;99.90;;;;;;6734549;88;20183;-76
2024/02/01 23:40:10;;;;;;;;;;;3.80;99.90;;;;;;6733498;88;20159;-75
2024/02/01 23:50:11;;;;;;;;;;;3.60;99.90;;;;;;6732836;88;20163;-74
